Sioux Lookout Airport
CYXL : now visible

Airfield :











YOU CAN JOIN US ON...

 
LOGIN :

Register | Disclaimer

   EN    FR    IT 

 









Legend :    VFR   Marginal VFR   IFR   Intensive IFR   Very Intensive IFR
Visi :
Ceiling :
>= 8 km
>= 3000ft
5 to 8 km
1000 to 3000 ft
1500m to 5 km
500 to 1000 ft
800 to 1500m
200 to 500 ft
< 800m
< 200 ft
Symbols :   Thunderstorms  Fog  Heavy snow  Heavy precipitations  Wind > 20 kt






- Airport Elevation : 1258 ft
- IATA code : YXL


CYXL - Sioux Lookout

CURRENT METAR :
  • 280100Z 31005KT 15SM SCT060 BKN160 BKN210 21/06 A2977 RMK CU4AC2CI1 SLP089 DENSITY ALT 2400FT

EXPIRED METARs :
  • 280000Z 31008KT 270V330 15SM SCT055 SCT110 BKN240 22/07 A2976 RMK CU3AC1CI3 AC TR TCU ASOCTD SLP088 DENSITY ALT 2500FT
  • 272300Z 31007KT 290V350 15SM SCT055 BKN090 BKN220 21/07 A2977 RMK CU4AC1CI1 TCU ASOCTD SLP090 DENSITY ALT 2500FT

TAF TAF CYXL
Valid from the 27 at 20:00 until the 28 at 08:00 UTC


271940Z 2720/2808 30008KT P6SM SCT060
TEMPO 2720/2808 BKN060
BECMG 2723/2801 VRB03KT RMK NXT FCST BY 280200Z
CZWG FIR / North America



MET'MAP, your aeronautical weather chart ! - Copyright ORBIFLY December 2007 - Disclaimer

ORBIFLY MET'MAP TEAM :

Programming & Development : Alexandra Zaïnal
Original concept : Baudouin d'Aumeries
Technical & hardware support : Manuel Goepfert
Assistance : Marc-Olivier Méhu

Contact : metmap@orbifly.com




SOURCES & CREDITS :

   NOAA       Earth
Advisory